createdAt,value
2018-12-10T00:00:16.579Z,5.30
2018-12-10T00:02:54.111Z,5.40
2018-12-10T00:05:26.230Z,5.30
2018-12-10T00:07:56.374Z,5.30
2018-12-10T00:10:26.485Z,5.40
2018-12-10T00:12:56.573Z,5.40
2018-12-10T00:15:26.651Z,5.50
2018-12-10T00:17:58.195Z,5.40
2018-12-10T00:20:28.375Z,5.40
2018-12-10T00:22:58.508Z,5.50
2018-12-10T00:25:28.731Z,5.50
2018-12-10T00:28:00.113Z,5.50
2018-12-10T00:30:30.195Z,5.60
2018-12-10T00:33:00.062Z,5.70
2018-12-10T00:35:30.165Z,5.60
2018-12-10T00:38:00.126Z,5.60
2018-12-10T00:40:31.082Z,5.60
2018-12-10T00:43:01.587Z,5.50
2018-12-10T00:45:31.924Z,5.40
2018-12-10T00:48:01.991Z,5.20
2018-12-10T00:50:32.095Z,5.00
2018-12-10T00:53:02.299Z,4.80
2018-12-10T00:55:32.494Z,4.80
2018-12-10T00:58:03.042Z,4.80
2018-12-10T01:00:33.252Z,4.80
2018-12-10T01:03:03.275Z,4.80
2018-12-10T01:05:33.544Z,4.80
2018-12-10T01:08:03.710Z,4.80
2018-12-10T01:10:34.045Z,4.80
2018-12-10T01:13:04.208Z,4.70
2018-12-10T01:15:34.139Z,4.70
2018-12-10T01:18:04.495Z,4.70
2018-12-10T01:20:34.492Z,4.60
2018-12-10T01:23:05.314Z,4.60
2018-12-10T01:25:35.423Z,4.50
2018-12-10T01:28:05.721Z,4.50
2018-12-10T01:30:35.962Z,4.40
2018-12-10T01:33:06.139Z,4.40
2018-12-10T01:35:36.309Z,4.40
2018-12-10T01:38:07.195Z,4.60
2018-12-10T01:43:13.702Z,4.60
2018-12-10T01:45:43.797Z,4.60
2018-12-10T01:48:13.914Z,4.50
2018-12-10T01:50:43.798Z,4.50
2018-12-10T01:53:13.902Z,4.50
2018-12-10T01:55:43.955Z,4.60
2018-12-10T01:58:14.595Z,4.60
2018-12-10T02:00:44.732Z,4.60
2018-12-10T02:03:14.907Z,4.50
2018-12-10T02:05:44.923Z,4.50
2018-12-10T02:08:14.982Z,4.50
2018-12-10T02:10:45.061Z,4.50
2018-12-10T02:13:15.471Z,4.50
2018-12-10T02:15:45.683Z,4.50
2018-12-10T02:18:15.802Z,4.60
2018-12-10T02:20:46.093Z,4.60
2018-12-10T02:23:16.279Z,4.50
2018-12-10T02:25:46.251Z,4.60
2018-12-10T02:28:20.769Z,4.50
2018-12-10T02:30:50.987Z,4.50
2018-12-10T02:33:21.400Z,4.50
2018-12-10T02:35:51.772Z,4.50
2018-12-10T02:38:21.967Z,4.50
2018-12-10T02:40:52.428Z,4.70
2018-12-10T02:43:22.911Z,4.90
2018-12-10T02:45:53.136Z,4.90
2018-12-10T02:48:23.986Z,5.00
2018-12-10T02:50:54.545Z,5.10
2018-12-10T02:53:24.750Z,5.10
2018-12-10T02:55:54.849Z,5.00
2018-12-10T02:58:25.994Z,5.00
2018-12-10T03:00:56.141Z,5.20
2018-12-10T03:03:26.421Z,5.30
2018-12-10T03:05:56.605Z,5.30
2018-12-10T03:08:27.722Z,5.30
2018-12-10T03:10:57.816Z,5.20
2018-12-10T03:13:28.360Z,5.20
2018-12-10T03:15:58.495Z,5.10
2018-12-10T03:18:28.587Z,5.10
2018-12-10T03:20:58.570Z,5.00
2018-12-10T03:23:28.460Z,5.00
2018-12-10T03:25:58.573Z,5.00
2018-12-10T03:28:28.543Z,5.00
2018-12-10T03:30:58.564Z,4.90
2018-12-10T03:33:28.774Z,4.90
2018-12-10T03:35:58.686Z,4.90
2018-12-10T03:38:28.548Z,5.00
2018-12-10T03:40:59.135Z,5.00
2018-12-10T03:43:29.138Z,5.00
2018-12-10T03:45:59.257Z,5.00
2018-12-10T03:48:30.047Z,5.00
2018-12-10T03:51:00.469Z,5.00
2018-12-10T03:53:31.071Z,5.00
2018-12-10T03:56:00.972Z,5.10
2018-12-10T03:58:30.994Z,5.10
2018-12-10T04:01:02.656Z,5.10
2018-12-10T04:03:33.900Z,5.10
2018-12-10T04:06:04.071Z,5.10
2018-12-10T04:08:34.015Z,5.00
2018-12-10T04:11:04.236Z,5.10
2018-12-10T04:13:34.207Z,5.10
2018-12-10T04:16:04.597Z,5.10
2018-12-10T04:18:34.755Z,5.10
2018-12-10T04:21:04.932Z,5.20
2018-12-10T04:23:35.036Z,5.20
2018-12-10T04:26:06.174Z,5.30
2018-12-10T04:28:36.345Z,5.30
2018-12-10T04:31:06.431Z,5.20
2018-12-10T04:33:36.460Z,5.20
2018-12-10T04:36:06.512Z,5.20
2018-12-10T04:38:36.782Z,5.20
2018-12-10T04:41:07.002Z,5.20
2018-12-10T04:43:37.133Z,5.30
2018-12-10T04:46:07.297Z,5.30
2018-12-10T04:48:38.358Z,5.30
2018-12-10T04:51:08.391Z,5.30
2018-12-10T04:53:38.554Z,5.30
2018-12-10T04:56:08.720Z,5.20
2018-12-10T04:58:38.978Z,5.20
2018-12-10T05:01:09.081Z,5.20
2018-12-10T05:03:39.004Z,5.10
2018-12-10T05:06:08.909Z,5.00
2018-12-10T05:08:38.805Z,4.90
2018-12-10T05:11:08.840Z,4.90
2018-12-10T05:13:38.962Z,4.90
2018-12-10T05:16:09.918Z,4.80
2018-12-10T05:18:39.917Z,4.90
2018-12-10T05:21:10.723Z,4.90
2018-12-10T05:23:40.973Z,4.90
2018-12-10T05:26:10.949Z,4.90
2018-12-10T05:28:41.116Z,4.90
2018-12-10T05:31:12.014Z,4.90
2018-12-10T05:33:42.121Z,4.90
2018-12-10T05:36:12.359Z,4.90
2018-12-10T05:38:42.374Z,4.90
2018-12-10T05:41:12.771Z,4.80
2018-12-10T05:43:42.726Z,4.80
2018-12-10T05:46:12.835Z,4.90
2018-12-10T05:48:42.848Z,4.80
2018-12-10T05:51:12.989Z,4.90
2018-12-10T05:53:43.334Z,4.80
2018-12-10T05:56:13.458Z,4.80
2018-12-10T05:58:43.657Z,4.80
2018-12-10T06:01:13.778Z,4.80
2018-12-10T06:03:43.938Z,4.80
2018-12-10T06:06:13.799Z,4.80
2018-12-10T06:08:43.928Z,5.00
2018-12-10T06:11:14.118Z,5.20
2018-12-10T06:13:44.137Z,5.20
2018-12-10T06:16:14.373Z,5.30
2018-12-10T06:18:44.389Z,5.30
2018-12-10T06:21:15.357Z,5.30
2018-12-10T06:23:45.935Z,5.30
2018-12-10T06:26:16.907Z,5.30
2018-12-10T06:28:46.949Z,5.40
2018-12-10T06:31:17.232Z,5.30
2018-12-10T06:33:47.415Z,5.10
